| Date | Time | Temp. (oF) | Dew Point (oF) | Rel. Hum. (%) | Press. (in.) | Wind Dir. | Wind Speed (mph) | Hourly Rainfall (in.) |
|
|---|---|---|---|---|---|---|---|---|---|
| 1 | 06/20 | 00:00 | 59 | 54 | 84 | 29.96 | W | 0 | 0.00 |
| 2 | 06/19 | 23:00 | 60 | 53 | 79 | 29.96 | W | 0 | 0.00 |
| 3 | 06/19 | 22:00 | 63 | 52 | 69 | 29.94 | W | 0 | 0.00 |
| 4 | 06/19 | 21:00 | 67 | 50 | 55 | 29.91 | W | 0 | 0.00 |
| 5 | 06/19 | 20:00 | 72 | 48 | 44 | 29.89 | WNW | 3 | 0.00 |
| 6 | 06/19 | 19:00 | 74 | 48 | 41 | 29.86 | NNW | 2 | 0.00 |
| 7 | 06/19 | 18:00 | 73 | 49 | 43 | 29.84 | NW | 4 | 0.00 |
| 8 | 06/19 | 17:00 | 73 | 50 | 45 | 29.85 | N | 2 | 0.00 |
| 9 | 06/19 | 16:00 | 72 | 49 | 46 | 29.89 | W | 4 | 0.00 |
| 10 | 06/19 | 15:00 | 72 | 49 | 46 | 29.89 | SW | 5 | 0.00 |
| 11 | 06/19 | 14:00 | 72 | 49 | 45 | 29.90 | WNW | 6 | 0.00 |
| 12 | 06/19 | 13:00 | 69 | 51 | 53 | 29.91 | NE | 4 | 0.00 |
| 13 | 06/19 | 12:00 | 69 | 50 | 52 | 29.91 | NNW | 3 | 0.00 |
| 14 | 06/19 | 11:00 | 67 | 52 | 59 | 29.92 | W | 4 | 0.00 |
| 15 | 06/19 | 10:00 | 66 | 53 | 65 | 29.91 | N | 4 | 0.00 |
| 16 | 06/19 | 09:00 | 63 | 54 | 75 | 29.91 | NW | 1 | 0.00 |
| 17 | 06/19 | 08:00 | 59 | 55 | 87 | 29.90 | WSW | 2 | 0.00 |
| 18 | 06/19 | 07:00 | 53 | 53 | 100 | 29.89 | SW | 2 | 0.00 |
| 19 | 06/19 | 06:00 | 51 | 50 | 99 | 29.88 | WSW | 2 | 0.00 |
| 20 | 06/19 | 05:00 | 51 | 50 | 97 | 29.86 | W | 0 | 0.00 |
| 21 | 06/19 | 04:00 | 52 | 50 | 95 | 29.85 | WNW | 0 | 0.00 |
| 22 | 06/19 | 03:00 | 55 | 51 | 88 | 29.86 | WNW | 0 | 0.00 |
| 23 | 06/19 | 02:00 | 57 | 53 | 87 | 29.84 | NW | 1 | 0.00 |
| 24 | 06/19 | 01:00 | 57 | 53 | 89 | 29.84 | WSW | 2 | 0.00 |